Overview Statistics Trail Chart Weather Telemetry Raw packets
 

This is the latest recevied weather packets stored in our database for station/object 9W2KHE-10. If no packets are shown the sender has not sent any weather packets the latest 10 day(s).

<< 15 16 17 18 19 20 21 >>
Time Temp. Humidity Pressure Rain* Wind** Luminosity Snow
1788217474 28.89° C 60% 1014 hPa - - - -
1788216574 28.89° C 60% 1013.8 hPa - - - -
1788215674 28.89° C 60% 1013.7 hPa - - - -
1788214774 28.89° C 61% 1013.6 hPa - - - -
1788213874 28.89° C 61% 1013.7 hPa - - - -
1788212974 29.44° C 60% 1013.7 hPa - - - -
1788212074 29.44° C 61% 1013.7 hPa - - - -
1788211174 29.44° C 61% 1013.5 hPa - - - -
1788210274 29.44° C 60% 1013.5 hPa - - - -
1788209373 29.44° C 60% 1013.3 hPa - - - -
1788208473 29.44° C 60% 1013.3 hPa - - - -
1788207593 30° C 57% 1013.2 hPa - - - -
1788206673 32.22° C 51% 1013.2 hPa - - - -
1788184800 31.11° C 57% 1013.7 hPa - - - -
1788183898 31.11° C 58% 1013.6 hPa - - - -
1788182998 31.67° C 58% 1013.6 hPa - - - -
1788182098 31.67° C 57% 1013.5 hPa - - - -
1788181198 31.67° C 58% 1013.5 hPa - - - -
1788180298 31.67° C 57% 1013.2 hPa - - - -
1788179403 31.67° C 57% 1013.1 hPa - - - -
1788178497 31.67° C 57% 1012.7 hPa - - - -
1788177597 32.22° C 57% 1012.5 hPa - - - -
1788176697 32.22° C 57% 1012.1 hPa - - - -
1788175796 32.22° C 56% 1011.9 hPa - - - -
1788174896 32.22° C 55% 1012 hPa - - - -

* Rain since midnight (hover to see other rain measurements)
** Current wind speed in m/s (hover to see current wind gust speed)